Terminal Aerodrome Forecast
Issued by NWS Lake Charles, LA

Home | Current Version | Previous Version | Text Only | Print | Product List | Glossary On
Versions: 1 2 3 4 5 6 7 8 9 10 11 12 13 14 15 16 17
000
FTUS44 KLCH 261140
TAFBPT
TAF
KBPT 261140Z 2612/2712 16013G20KT P6SM FEW023 OVC040
      TEMPO 2613/2615 FEW014 BKN025
     FM261500 18017G25KT P6SM OVC025
     FM261800 19022G30KT P6SM VCSH SCT021 BKN030
      TEMPO 2621/2701 2SM TSRA OVC015CB
     FM270300 33014KT P6SM FEW250=

USA.gov is the U.S. government's official web portal to all federal, state and local government web resources and services.